Fairbanks, AK

2:36 AM AKDT on August 28, 2016 (GMT -0800)
Fairbanks International | | Change Station

Elev 433 ft 64.80 °N, 147.88 °W | Updated 43 minutes ago

Mostly Cloudy
Mostly Cloudy
54 °F
Feels Like 54 °F
N
4
Wind Variable Wind from NNE

Today
High -- | Low -- °F
--% Chance of Precip.
Yesterday
High -- | Low -- °F
Precip. -- in
Pressure 30.18 in
Visibility 10.0 miles
Clouds Few 4500 ft
Scattered Clouds 7000 ft
Mostly Cloudy 11000 ft
Dew Point 53 °F
Humidity 97%
Rainfall 0.00 in
Snow Depth Not available.
6:21 AM 9:21 PM
Waning Crescent, 16% visible
METAR PAFA 280953Z 03003KT 10SM FEW045 SCT070 BKN110 12/12 A3017 RMK AO2 SLP220 T01220117
Pressure 30.18 in
Visibility 10.0 miles
Clouds Few 4500 ft
Scattered Clouds 7000 ft
Mostly Cloudy 11000 ft
Dew Point 53 °F
Humidity 97%
Rainfall 0.00 in
Snow Depth Not available.
6:21 AM 9:21 PM
Waning Crescent, 16% visible
METAR PAFA 280953Z 03003KT 10SM FEW045 SCT070 BKN110 12/12 A3017 RMK AO2 SLP220 T01220117

10-Day Weather Forecast

Almanac

Astronomy

Aug. 28, 2016 Rise Set
Actual Time
Civil Twilight
Nautical Twilight
Astronomical Twilight
Moon
Length of Visible Light
Length of Day
Tomorrow will be .
, % of the Moon is Illuminated

Today's Extremes

State Highs State Lows

Community

WunderPhotos

Upload Photos

1,935,541 photos uploaded!

WunderBlog® & News

Nearby

Air Quality

  Air Quality AQ Index Pollutant
Not available.

Snow Depth

Station Depth Elevation

Earthquake Activity

City Distance Mag. Time & Date
Minimum magnitude displayed is 2.5.

Coastal Water Temperatures

Place Temperature

Stations

Nearby Weather Stations

Station Location Temp. Windchill Dew Point Humidity Wind Precip. Elev Updated Type
                   

Watches & Warnings

There are currently no watches in effect.